Time;durP1;ratioP1;P1;durP2;ratioP2;P2;SDS_P1;SDS_P2;PMS_P1;PMS_P2;Temp;Humidity;BMP_temperature;BMP_pressure;BME280_temperature;BME280_humidity;BME280_pressure;Samples;Min_cycle;Max_cycle;Signal;HPM_P1;HPM_P2
2023/07/27 00:00:45;;;;;;;7.78;6.97;;;13.70;99.90;;;;;;4882643;28;92635;-34
2023/07/27 00:03:11;;;;;;;14.00;7.82;;;13.70;99.90;;;;;;4884525;28;92129;-35
2023/07/27 00:05:36;;;;;;;8.23;6.43;;;13.70;99.90;;;;;;4882563;28;94185;-35
2023/07/27 00:08:02;;;;;;;9.27;7.68;;;13.70;99.90;;;;;;4883467;28;95977;-33
2023/07/27 00:10:28;;;;;;;10.52;7.43;;;13.70;99.90;;;;;;4879863;28;94353;-36
2023/07/27 00:12:54;;;;;;;10.05;7.63;;;13.70;99.90;;;;;;4882936;28;92787;-38
2023/07/27 00:15:20;;;;;;;9.68;7.03;;;13.70;99.90;;;;;;4879605;28;96075;-33
2023/07/27 00:17:45;;;;;;;8.27;6.43;;;13.70;99.90;;;;;;4882539;28;95152;-41
2023/07/27 00:20:12;;;;;;;6.95;5.57;;;13.70;99.90;;;;;;4880422;28;94470;-37
2023/07/27 00:22:37;;;;;;;7.30;6.60;;;13.70;99.90;;;;;;4882103;28;93293;-32
2023/07/27 00:25:04;;;;;;;8.70;6.53;;;13.70;99.90;;;;;;4880945;28;94507;-34
2023/07/27 00:27:30;;;;;;;9.15;6.85;;;13.70;99.90;;;;;;4882401;28;95850;-34
2023/07/27 00:29:55;;;;;;;7.13;6.15;;;13.70;99.90;;;;;;4880131;28;92610;-35
2023/07/27 00:32:22;;;;;;;8.55;6.72;;;13.80;99.90;;;;;;4881286;28;91520;-31
2023/07/27 00:34:49;;;;;;;6.85;6.00;;;13.80;99.90;;;;;;4881038;28;95114;-30
2023/07/27 00:37:15;;;;;;;6.88;6.18;;;13.80;99.90;;;;;;4879141;28;95346;-34
2023/07/27 00:39:40;;;;;;;9.52;6.40;;;13.90;99.90;;;;;;4878953;28;93086;-34
2023/07/27 00:42:06;;;;;;;7.40;5.90;;;13.80;99.90;;;;;;4879068;28;92574;-34
2023/07/27 00:44:32;;;;;;;6.90;6.10;;;13.80;99.90;;;;;;4879072;28;94640;-39
2023/07/27 00:46:58;;;;;;;7.43;4.78;;;13.90;99.90;;;;;;4879394;28;93974;-36
2023/07/27 00:49:24;;;;;;;8.23;5.72;;;13.90;99.90;;;;;;4878036;28;94568;-43
2023/07/27 00:51:50;;;;;;;6.20;5.60;;;13.90;99.90;;;;;;4881026;28;92431;-34
2023/07/27 00:54:17;;;;;;;8.57;5.28;;;13.90;99.90;;;;;;4876149;28;94875;-35
2023/07/27 00:56:43;;;;;;;16.58;6.70;;;14.00;99.90;;;;;;4879238;28;94368;-33
2023/07/27 00:59:09;;;;;;;6.10;4.35;;;14.00;99.90;;;;;;4876683;28;94281;-37
2023/07/27 01:01:36;;;;;;;6.15;5.07;;;14.00;99.90;;;;;;4880191;28;94483;-41
2023/07/27 01:04:02;;;;;;;7.70;5.03;;;14.00;99.90;;;;;;4881016;28;95855;-37
2023/07/27 01:06:29;;;;;;;8.57;6.20;;;14.00;99.90;;;;;;4880295;28;95480;-35
2023/07/27 01:08:55;;;;;;;6.13;5.43;;;14.00;99.90;;;;;;4878095;28;93324;-32
2023/07/27 01:11:33;;;;;;;5.20;4.70;;;14.10;99.90;;;;;;4880473;28;94254;-40
2023/07/27 01:14:04;;;;;;;9.25;6.35;;;14.10;99.90;;;;;;4880919;28;94796;-32
2023/07/27 01:16:54;;;;;;;7.70;5.68;;;14.10;99.90;;;;;;4880679;28;94801;-36
2023/07/27 01:19:38;;;;;;;7.07;5.38;;;14.10;99.90;;;;;;4879193;28;92989;-37
2023/07/27 01:22:31;;;;;;;8.00;5.00;;;14.10;99.90;;;;;;4880603;28;92404;-36
2023/07/27 01:25:21;;;;;;;6.20;4.78;;;14.20;99.90;;;;;;4879868;28;94696;-34
2023/07/27 01:27:58;;;;;;;5.88;4.95;;;14.20;99.90;;;;;;4879482;28;94255;-33
2023/07/27 01:30:27;;;;;;;5.80;4.78;;;14.20;99.90;;;;;;4875411;28;94717;-34
2023/07/27 01:33:14;;;;;;;7.70;5.03;;;14.20;99.90;;;;;;4861459;28;93240;-33
2023/07/27 01:35:48;;;;;;;8.80;5.75;;;14.20;99.90;;;;;;4869506;28;94479;-33
2023/07/27 01:38:15;;;;;;;8.85;5.95;;;14.20;99.90;;;;;;4880023;28;94862;-32
2023/07/27 01:40:42;;;;;;;8.25;5.85;;;14.30;99.90;;;;;;4872129;28;94098;-35
2023/07/27 01:43:11;;;;;;;6.03;5.38;;;14.30;99.90;;;;;;4861628;28;94725;-42
2023/07/27 01:45:39;;;;;;;7.65;5.30;;;14.30;99.90;;;;;;4860444;28;95384;-32
2023/07/27 01:48:06;;;;;;;9.25;5.95;;;14.30;99.90;;;;;;4861481;28;95106;-35
2023/07/27 01:50:33;;;;;;;6.15;5.18;;;14.30;99.90;;;;;;4861800;28;93426;-39
2023/07/27 01:53:00;;;;;;;6.32;5.72;;;14.30;99.90;;;;;;4844976;28;93966;-33
2023/07/27 01:55:28;;;;;;;8.77;6.07;;;14.30;99.90;;;;;;4860992;28;95801;-37
2023/07/27 01:57:54;;;;;;;9.32;5.80;;;14.30;99.90;;;;;;4861412;28;94724;-33
2023/07/27 02:00:20;;;;;;;7.60;5.45;;;14.30;99.90;;;;;;4861779;28;92232;-35
2023/07/27 02:02:46;;;;;;;11.02;5.72;;;14.30;99.90;;;;;;4876839;28;92599;-34
2023/07/27 02:05:13;;;;;;;7.28;5.63;;;14.30;99.90;;;;;;4876927;28;94608;-32
2023/07/27 02:07:38;;;;;;;9.50;5.55;;;14.30;99.90;;;;;;4878926;28;94271;-32
2023/07/27 02:10:04;;;;;;;6.80;5.30;;;14.30;99.90;;;;;;4877150;28;93053;-33
2023/07/27 02:12:40;;;;;;;7.10;6.28;;;14.30;99.90;;;;;;4877612;28;93732;-32
2023/07/27 02:15:13;;;;;;;6.38;5.03;;;14.20;99.90;;;;;;4879900;28;94749;-33
2023/07/27 02:17:44;;;;;;;9.32;6.30;;;14.30;99.90;;;;;;4877511;28;94511;-40
2023/07/27 02:20:14;;;;;;;9.57;6.25;;;14.20;99.90;;;;;;4878937;28;95337;-37
2023/07/27 02:22:43;;;;;;;10.30;6.63;;;14.20;99.90;;;;;;4877592;28;93350;-35
2023/07/27 02:25:09;;;;;;;9.85;6.10;;;14.20;99.90;;;;;;4875437;28;94285;-38
2023/07/27 02:27:36;;;;;;;6.90;5.70;;;14.20;99.90;;;;;;4877796;28;95096;-35
2023/07/27 02:30:02;;;;;;;7.07;5.75;;;14.20;99.90;;;;;;4872618;28;94441;-34
2023/07/27 02:32:28;;;;;;;5.88;5.32;;;14.20;99.90;;;;;;4874110;28;94107;-32
2023/07/27 02:34:54;;;;;;;15.60;6.85;;;14.20;99.90;;;;;;4869798;28;94687;-38
2023/07/27 02:37:19;;;;;;;7.28;5.10;;;14.20;99.90;;;;;;4874296;28;93432;-37
2023/07/27 02:39:45;;;;;;;9.48;5.72;;;14.20;99.90;;;;;;4868385;28;93602;-35
2023/07/27 02:42:11;;;;;;;7.47;5.15;;;14.20;99.90;;;;;;4874272;28;92592;-41
2023/07/27 02:44:36;;;;;;;6.97;5.32;;;14.20;99.90;;;;;;4873619;28;95528;-36
2023/07/27 02:47:02;;;;;;;5.93;4.95;;;14.20;99.90;;;;;;4875084;28;95389;-38
2023/07/27 02:49:28;;;;;;;7.30;5.32;;;14.10;99.90;;;;;;4871215;28;94178;-36
2023/07/27 02:51:53;;;;;;;6.63;5.32;;;14.10;99.90;;;;;;4875893;28;93535;-38
2023/07/27 02:54:19;;;;;;;7.38;5.05;;;14.10;99.90;;;;;;4871477;28;95929;-33
2023/07/27 02:56:44;;;;;;;8.52;5.80;;;14.10;99.90;;;;;;4875057;28;94784;-37
2023/07/27 02:59:10;;;;;;;8.57;6.45;;;14.10;99.90;;;;;;4871789;28;93837;-36
2023/07/27 03:01:36;;;;;;;7.28;5.55;;;14.10;99.90;;;;;;4876243;28;91941;-38
2023/07/27 03:04:02;;;;;;;6.78;5.70;;;14.10;99.90;;;;;;4862457;28;94280;-34
2023/07/27 03:06:28;;;;;;;8.10;7.28;;;14.10;99.90;;;;;;4859863;28;94444;-35
2023/07/27 03:08:53;;;;;;;8.38;5.15;;;14.10;99.90;;;;;;4875723;28;94683;-37
2023/07/27 03:11:19;;;;;;;7.82;5.97;;;14.10;99.90;;;;;;4878935;28;94604;-33
2023/07/27 03:13:45;;;;;;;5.95;5.45;;;14.10;99.90;;;;;;4878098;28;94760;-37
2023/07/27 03:16:10;;;;;;;6.18;4.10;;;14.20;99.90;;;;;;4879416;28;94549;-36
2023/07/27 03:18:36;;;;;;;15.32;7.50;;;14.20;99.90;;;;;;4878113;28;93908;-36
2023/07/27 03:21:03;;;;;;;8.77;7.45;;;14.20;99.90;;;;;;4878693;28;94344;-42
2023/07/27 03:23:29;;;;;;;9.43;8.37;;;14.20;99.90;;;;;;4878069;28;94710;-38
2023/07/27 03:25:55;;;;;;;9.90;7.28;;;14.20;99.90;;;;;;4879148;28;94427;-36
2023/07/27 03:28:20;;;;;;;9.23;7.35;;;14.20;99.90;;;;;;4878768;28;93768;-35
2023/07/27 03:30:46;;;;;;;11.20;9.32;;;14.30;99.90;;;;;;4867683;28;92114;-33
2023/07/27 03:33:12;;;;;;;7.72;6.85;;;14.30;99.90;;;;;;4858967;28;95680;-34
2023/07/27 03:35:37;;;;;;;12.70;10.75;;;14.30;99.90;;;;;;4871982;28;94544;-33
2023/07/27 03:38:03;;;;;;;12.65;9.80;;;14.20;99.90;;;;;;4866522;28;92627;-33
2023/07/27 03:40:29;;;;;;;14.00;10.48;;;14.20;99.90;;;;;;4867079;28;94306;-38
2023/07/27 03:42:55;;;;;;;12.40;10.52;;;14.20;99.90;;;;;;4858737;28;95142;-33
2023/07/27 03:45:20;;;;;;;12.00;10.23;;;14.20;99.90;;;;;;4871129;28;94666;-41
2023/07/27 03:47:46;;;;;;;11.43;9.00;;;14.20;99.90;;;;;;4872220;28;94703;-33
2023/07/27 03:50:13;;;;;;;11.75;9.02;;;14.10;99.90;;;;;;4860081;28;91869;-34
2023/07/27 03:52:38;;;;;;;15.35;9.57;;;14.10;99.90;;;;;;4860365;28;95182;-41
2023/07/27 03:55:04;;;;;;;9.70;8.70;;;14.10;99.90;;;;;;4871210;28;94859;-37
2023/07/27 03:57:31;;;;;;;12.60;9.77;;;14.10;99.90;;;;;;4859472;28;94306;-34
2023/07/27 03:59:58;;;;;;;11.75;9.25;;;14.10;99.90;;;;;;4872191;28;92273;-37
2023/07/27 04:02:25;;;;;;;10.30;9.30;;;14.10;99.90;;;;;;4875098;28;94617;-38
2023/07/27 04:04:51;;;;;;;12.90;9.57;;;14.10;99.90;;;;;;4867348;28;94885;-37
2023/07/27 04:07:20;;;;;;;10.65;8.52;;;14.10;99.90;;;;;;4872524;28;93535;-35
2023/07/27 04:09:46;;;;;;;10.13;8.95;;;14.00;99.90;;;;;;4869569;28;93135;-38
2023/07/27 04:12:12;;;;;;;10.98;9.65;;;14.00;99.90;;;;;;4873358;28;95040;-40
2023/07/27 04:14:38;;;;;;;10.07;8.80;;;14.00;99.90;;;;;;4874592;28;94582;-43
2023/07/27 04:17:05;;;;;;;10.23;9.00;;;14.00;99.90;;;;;;4877119;28;94231;-37
2023/07/27 04:19:30;;;;;;;12.30;9.88;;;14.00;99.90;;;;;;4876470;28;95031;-33
2023/07/27 04:21:56;;;;;;;11.82;8.90;;;14.00;99.90;;;;;;4877062;28;95489;-36
2023/07/27 04:24:22;;;;;;;11.43;9.57;;;13.90;99.90;;;;;;4875112;28;95520;-33
2023/07/27 04:26:47;;;;;;;11.93;9.38;;;13.90;99.90;;;;;;4879177;28;94900;-43
2023/07/27 04:29:13;;;;;;;11.85;9.35;;;13.90;99.90;;;;;;4877546;28;94739;-38
2023/07/27 04:31:38;;;;;;;11.23;9.45;;;14.00;99.90;;;;;;4865205;28;94755;-41
2023/07/27 04:34:05;;;;;;;13.98;10.35;;;13.90;99.90;;;;;;4871687;28;94738;-36
2023/07/27 04:36:30;;;;;;;15.00;9.85;;;14.00;99.90;;;;;;4860182;28;93481;-40
2023/07/27 04:38:56;;;;;;;10.02;9.02;;;13.90;99.90;;;;;;4859886;28;92589;-36
2023/07/27 04:41:22;;;;;;;13.15;10.30;;;13.90;99.90;;;;;;4860512;28;94717;-32
2023/07/27 04:43:48;;;;;;;14.07;10.30;;;14.00;99.90;;;;;;4859490;28;94712;-38
2023/07/27 04:46:13;;;;;;;15.75;10.40;;;14.00;99.90;;;;;;4872516;28;95445;-32
2023/07/27 04:48:39;;;;;;;10.93;9.80;;;14.00;99.90;;;;;;4859805;28;94023;-34
2023/07/27 04:51:05;;;;;;;11.40;9.43;;;14.00;99.90;;;;;;4860528;28;94704;-41
2023/07/27 04:53:30;;;;;;;12.48;9.88;;;14.00;99.90;;;;;;4859991;28;95012;-38
2023/07/27 04:55:56;;;;;;;10.45;9.15;;;14.00;99.90;;;;;;4862425;28;94544;-41
2023/07/27 04:58:22;;;;;;;11.13;9.30;;;14.00;99.90;;;;;;4870962;28;94013;-32
2023/07/27 05:00:54;;;;;;;11.77;8.75;;;14.00;99.90;;;;;;4874550;28;94538;-39
2023/07/27 05:03:20;;;;;;;9.80;8.82;;;14.00;99.90;;;;;;4878776;28;94773;-38
2023/07/27 05:05:46;;;;;;;11.25;10.07;;;14.00;99.90;;;;;;4876937;28;94075;-35
2023/07/27 05:08:11;;;;;;;11.57;8.82;;;14.00;99.90;;;;;;4876791;28;93306;-34
2023/07/27 05:10:40;;;;;;;10.85;8.95;;;14.00;99.90;;;;;;4874356;28;95925;-34
2023/07/27 05:13:07;;;;;;;17.80;11.07;;;14.00;99.90;;;;;;4876527;28;95256;-43
2023/07/27 05:15:32;;;;;;;13.07;9.88;;;14.00;99.90;;;;;;4878770;28;93092;-37
2023/07/27 05:17:58;;;;;;;12.13;9.48;;;14.00;99.90;;;;;;4873598;28;94009;-36
2023/07/27 05:20:23;;;;;;;10.55;9.45;;;14.00;99.90;;;;;;4874733;28;95381;-33
2023/07/27 05:22:49;;;;;;;11.45;8.93;;;14.10;99.90;;;;;;4874034;28;94917;-41
2023/07/27 05:25:14;;;;;;;10.65;8.73;;;14.10;99.90;;;;;;4865044;28;94498;-37
2023/07/27 05:27:40;;;;;;;10.38;8.57;;;14.10;99.90;;;;;;4864581;28;93502;-36
2023/07/27 05:30:06;;;;;;;11.43;9.40;;;14.10;99.90;;;;;;4876604;28;95234;-33
2023/07/27 05:32:32;;;;;;;12.63;8.23;;;14.10;99.90;;;;;;4878686;28;94634;-40
2023/07/27 05:34:58;;;;;;;10.55;8.25;;;14.20;99.90;;;;;;4877687;28;95785;-40
2023/07/27 05:37:23;;;;;;;9.90;8.85;;;14.20;99.90;;;;;;4867604;28;93272;-38
2023/07/27 05:39:49;;;;;;;11.88;8.85;;;14.20;99.90;;;;;;4877455;28;95580;-34
2023/07/27 05:42:15;;;;;;;10.50;8.82;;;14.20;99.90;;;;;;4877201;28;94942;-32
2023/07/27 05:44:40;;;;;;;11.88;9.38;;;14.20;99.90;;;;;;4878156;28;93597;-42
2023/07/27 05:47:06;;;;;;;10.50;9.43;;;14.20;99.90;;;;;;4878320;28;92764;-42
2023/07/27 05:49:32;;;;;;;15.50;10.73;;;14.20;99.90;;;;;;4877780;28;94765;-34
2023/07/27 05:51:58;;;;;;;12.82;10.32;;;14.20;99.90;;;;;;4878027;28;94061;-40
2023/07/27 05:54:24;;;;;;;13.95;10.52;;;14.20;99.90;;;;;;4874143;28;94577;-40
2023/07/27 05:56:49;;;;;;;11.55;9.50;;;14.30;99.90;;;;;;4859768;28;94165;-33
2023/07/27 05:59:15;;;;;;;11.82;9.75;;;14.30;99.90;;;;;;4858524;28;95275;-33
2023/07/27 06:01:40;;;;;;;12.75;11.27;;;14.30;99.90;;;;;;4870885;28;95747;-43
2023/07/27 06:04:06;;;;;;;14.32;11.15;;;14.30;99.90;;;;;;4873016;28;95163;-40
2023/07/27 06:06:32;;;;;;;12.63;10.80;;;14.30;99.90;;;;;;4876218;28;93255;-37
2023/07/27 06:08:58;;;;;;;14.82;11.50;;;14.30;99.90;;;;;;4874397;28;94978;-33
2023/07/27 06:11:23;;;;;;;14.18;11.23;;;14.30;99.90;;;;;;4874449;28;93898;-31
2023/07/27 06:13:49;;;;;;;10.52;7.82;;;14.40;99.90;;;;;;4871855;28;92523;-33
2023/07/27 06:16:16;;;;;;;14.43;10.82;;;14.40;99.90;;;;;;4875632;28;93884;-32
2023/07/27 06:18:42;;;;;;;8.85;8.02;;;14.40;99.90;;;;;;4874813;28;95216;-32
2023/07/27 06:21:07;;;;;;;13.70;11.32;;;14.50;99.90;;;;;;4875120;28;94541;-36
2023/07/27 06:23:33;;;;;;;13.02;11.32;;;14.60;99.90;;;;;;4870731;28;93471;-36
2023/07/27 06:25:59;;;;;;;14.65;11.80;;;14.50;99.90;;;;;;4877618;28;94172;-32
2023/07/27 06:28:24;;;;;;;15.32;12.90;;;14.60;99.90;;;;;;4873341;28;94781;-33
2023/07/27 06:30:50;;;;;;;15.45;13.45;;;14.50;99.90;;;;;;4877719;28;94032;-32
2023/07/27 06:33:15;;;;;;;16.02;13.68;;;14.60;99.90;;;;;;4876873;28;93523;-35
2023/07/27 06:35:41;;;;;;;19.27;14.20;;;14.60;99.90;;;;;;4875321;28;93227;-33
2023/07/27 06:38:07;;;;;;;15.80;14.13;;;14.60;99.90;;;;;;4876125;28;94167;-38
2023/07/27 06:40:33;;;;;;;17.35;15.27;;;14.60;99.90;;;;;;4876839;28;94227;-37
2023/07/27 06:42:59;;;;;;;16.10;13.20;;;14.60;99.90;;;;;;4876774;28;92214;-34
2023/07/27 06:45:25;;;;;;;17.40;13.60;;;14.60;99.90;;;;;;4876321;28;94919;-35
2023/07/27 06:47:50;;;;;;;17.60;13.07;;;14.60;99.90;;;;;;4873913;28;95501;-35
2023/07/27 06:50:16;;;;;;;17.98;13.27;;;14.60;99.90;;;;;;4876665;28;95526;-33
2023/07/27 06:52:42;;;;;;;14.85;13.27;;;14.60;99.90;;;;;;4874443;28;94617;-32
2023/07/27 06:55:08;;;;;;;19.17;14.25;;;14.60;99.90;;;;;;4866680;28;94233;-31
2023/07/27 06:57:34;;;;;;;14.85;13.27;;;14.60;99.90;;;;;;4875795;28;96479;-34
2023/07/27 07:00:00;;;;;;;15.70;13.80;;;14.70;99.90;;;;;;4868073;28;93937;-33
2023/07/27 07:02:26;;;;;;;14.90;13.40;;;14.70;99.90;;;;;;4860209;28;93781;-33
2023/07/27 07:04:52;;;;;;;15.35;13.02;;;14.80;99.90;;;;;;4866609;28;92674;-32
2023/07/27 07:07:18;;;;;;;11.70;10.60;;;14.80;99.90;;;;;;4862306;28;93660;-34
2023/07/27 07:09:44;;;;;;;13.40;12.10;;;14.80;99.90;;;;;;4867132;28;94782;-33
2023/07/27 07:12:09;;;;;;;14.35;11.27;;;14.80;99.90;;;;;;4857106;28;93510;-39
2023/07/27 07:14:35;;;;;;;12.48;11.20;;;14.90;99.90;;;;;;4858318;28;92640;-31
2023/07/27 07:17:01;;;;;;;14.02;11.30;;;14.90;99.90;;;;;;4870324;28;95320;-36
2023/07/27 07:19:27;;;;;;;12.57;11.02;;;14.90;99.90;;;;;;4858564;28;94967;-35
2023/07/27 07:21:53;;;;;;;10.95;9.77;;;14.90;99.90;;;;;;4858238;28;93646;-38
2023/07/27 07:24:19;;;;;;;13.30;11.32;;;15.00;99.90;;;;;;4867923;28;94695;-34
2023/07/27 07:26:45;;;;;;;14.65;10.32;;;14.90;99.90;;;;;;4861587;28;94912;-37
2023/07/27 07:29:11;;;;;;;11.88;9.68;;;15.00;99.90;;;;;;4865931;28;93262;-35
2023/07/27 07:31:37;;;;;;;13.05;9.93;;;14.90;99.90;;;;;;4876957;28;92591;-39
2023/07/27 07:34:03;;;;;;;11.60;9.20;;;14.90;99.90;;;;;;4858334;28;93664;-34
2023/07/27 07:36:29;;;;;;;9.70;8.77;;;14.90;99.90;;;;;;4857523;28;95525;-36
2023/07/27 07:38:54;;;;;;;11.35;10.25;;;15.00;99.90;;;;;;4865429;28;95634;-37
2023/07/27 07:41:20;;;;;;;11.23;9.45;;;15.00;99.90;;;;;;4863667;28;93237;-37
2023/07/27 07:43:46;;;;;;;10.52;9.15;;;15.00;99.90;;;;;;4869495;28;92832;-32
2023/07/27 07:46:12;;;;;;;11.93;9.80;;;15.00;99.90;;;;;;4861019;28;94754;-32
2023/07/27 07:48:38;;;;;;;9.38;8.40;;;15.00;99.90;;;;;;4876595;28;94903;-39
2023/07/27 07:51:09;;;;;;;10.45;9.35;;;15.00;99.90;;;;;;4875453;28;94157;-31
2023/07/27 07:53:35;;;;;;;10.63;9.55;;;15.10;99.90;;;;;;4878139;28;93308;-33
2023/07/27 07:56:00;;;;;;;11.30;10.25;;;15.10;99.90;;;;;;4873662;28;94507;-33
2023/07/27 07:58:26;;;;;;;13.15;10.13;;;15.10;99.90;;;;;;4876784;28;94634;-33
2023/07/27 08:00:51;;;;;;;10.30;9.30;;;15.10;99.90;;;;;;4876850;28;94728;-31
2023/07/27 08:03:17;;;;;;;10.85;9.75;;;15.00;99.90;;;;;;4877669;28;93527;-34
2023/07/27 08:05:43;;;;;;;13.18;10.15;;;15.10;99.90;;;;;;4876891;28;95154;-31
2023/07/27 08:08:09;;;;;;;9.98;9.10;;;15.10;99.90;;;;;;4878845;28;94881;-37
2023/07/27 08:10:34;;;;;;;13.27;10.43;;;15.10;99.90;;;;;;4912354;23;92474;-40
2023/07/27 08:13:00;;;;;;;12.98;11.60;;;15.10;99.90;;;;;;4879165;28;94489;-37
2023/07/27 08:15:26;;;;;;;11.88;10.70;;;15.20;99.90;;;;;;4877800;28;94518;-38
2023/07/27 08:17:51;;;;;;;11.30;10.23;;;15.10;99.90;;;;;;4879613;28;94250;-33
2023/07/27 08:20:17;;;;;;;12.13;10.93;;;15.20;99.90;;;;;;4879339;28;94272;-36
2023/07/27 08:22:43;;;;;;;15.07;10.70;;;15.20;99.90;;;;;;4878026;28;94434;-37
2023/07/27 08:25:08;;;;;;;12.25;11.05;;;15.20;99.90;;;;;;4874129;28;95401;-38
2023/07/27 08:27:34;;;;;;;11.30;10.15;;;15.20;99.90;;;;;;4879228;28;95965;-36
2023/07/27 08:30:00;;;;;;;12.00;10.82;;;15.20;99.90;;;;;;4878436;28;93289;-34
2023/07/27 08:32:26;;;;;;;10.23;9.25;;;15.20;99.90;;;;;;4879337;28;94237;-29
2023/07/27 08:34:52;;;;;;;6.03;5.47;;;15.20;99.90;;;;;;4879218;28;95821;-31
2023/07/27 08:37:17;;;;;;;9.95;8.95;;;15.20;99.90;;;;;;4876985;28;95183;-34
2023/07/27 08:39:43;;;;;;;10.25;8.88;;;15.30;99.90;;;;;;4878700;28;93641;-40
2023/07/27 08:42:14;;;;;;;9.40;8.52;;;15.30;99.90;;;;;;4880076;28;92606;-35
2023/07/27 08:44:43;;;;;;;10.00;9.18;;;15.30;99.90;;;;;;4879538;28;94055;-38
2023/07/27 08:47:09;;;;;;;9.07;8.18;;;15.30;99.90;;;;;;4870281;28;94452;-38
2023/07/27 08:49:35;;;;;;;8.82;8.02;;;15.30;99.90;;;;;;4878508;28;94521;-33
2023/07/27 08:52:01;;;;;;;8.95;8.15;;;15.30;99.90;;;;;;4879702;28;93330;-34
2023/07/27 08:54:28;;;;;;;9.27;8.38;;;15.30;99.90;;;;;;4878950;28;94980;-32
2023/07/27 08:56:53;;;;;;;8.68;7.93;;;15.40;99.90;;;;;;4879027;28;95370;-33
2023/07/27 08:59:19;;;;;;;7.15;6.55;;;15.40;99.90;;;;;;4877974;28;94415;-37
2023/07/27 09:01:45;;;;;;;7.57;6.95;;;15.40;99.90;;;;;;4878987;28;93155;-38
2023/07/27 09:04:11;;;;;;;7.72;7.13;;;15.50;99.90;;;;;;4879082;28;94419;-33
2023/07/27 09:06:38;;;;;;;8.27;7.57;;;15.40;99.90;;;;;;4867659;28;94245;-39
2023/07/27 09:09:12;;;;;;;7.22;6.63;;;15.50;99.90;;;;;;4859889;28;92199;-36
2023/07/27 09:11:39;;;;;;;7.63;7.03;;;15.50;99.90;;;;;;4860656;28;94219;-33
2023/07/27 09:14:04;;;;;;;7.47;6.90;;;15.50;99.90;;;;;;4865584;28;97801;-36
2023/07/27 09:16:34;;;;;;;8.38;7.72;;;15.50;99.90;;;;;;4878404;28;95766;-35
2023/07/27 09:19:00;;;;;;;8.77;7.82;;;15.50;99.90;;;;;;4880096;28;94751;-42
2023/07/27 09:21:26;;;;;;;7.10;6.55;;;15.60;99.90;;;;;;4878049;28;94514;-31
2023/07/27 09:23:56;;;;;;;9.07;8.30;;;15.60;99.90;;;;;;4878467;28;95208;-31
2023/07/27 09:26:25;;;;;;;7.18;6.68;;;15.60;99.90;;;;;;4877543;28;94374;-32
2023/07/27 09:28:53;;;;;;;7.82;7.22;;;15.70;99.90;;;;;;4878266;28;93265;-33
2023/07/27 09:31:18;;;;;;;7.70;7.00;;;15.70;99.90;;;;;;4869780;28;91991;-34
2023/07/27 09:33:44;;;;;;;7.13;6.53;;;15.80;99.90;;;;;;4872084;28;95265;-34
2023/07/27 09:36:10;;;;;;;6.85;6.25;;;15.80;99.90;;;;;;4872241;28;95682;-33
2023/07/27 09:38:36;;;;;;;7.15;6.63;;;15.80;99.90;;;;;;4873900;28;93170;-34
2023/07/27 09:41:08;;;;;;;7.28;6.78;;;15.80;99.90;;;;;;4874059;28;94714;-32
2023/07/27 09:43:40;;;;;;;6.82;6.13;;;16.00;99.90;;;;;;4874062;28;94589;-35
2023/07/27 09:46:06;;;;;;;7.22;6.63;;;15.90;99.90;;;;;;4874321;28;95174;-33
2023/07/27 09:48:32;;;;;;;7.80;6.53;;;16.00;99.90;;;;;;4873453;28;93760;-34
2023/07/27 09:51:01;;;;;;;7.38;6.68;;;16.00;99.90;;;;;;4869048;28;93987;-33
2023/07/27 09:53:31;;;;;;;7.13;6.43;;;16.00;99.90;;;;;;4873161;28;94654;-41
2023/07/27 09:55:58;;;;;;;7.30;6.70;;;16.10;99.90;;;;;;4868555;28;93864;-37
2023/07/27 09:58:24;;;;;;;7.35;6.75;;;16.10;99.90;;;;;;4872975;28;93491;-30
2023/07/27 10:00:50;;;;;;;6.35;5.85;;;16.10;99.90;;;;;;4871656;28;92279;-33
2023/07/27 10:03:15;;;;;;;7.53;5.72;;;16.10;99.90;;;;;;4877090;28;95578;-33
2023/07/27 10:05:42;;;;;;;6.20;5.70;;;16.20;99.90;;;;;;4877964;28;95110;-32
2023/07/27 10:08:08;;;;;;;6.85;6.25;;;16.30;99.90;;;;;;4877465;28;92830;-34
2023/07/27 10:10:35;;;;;;;5.97;5.57;;;16.30;99.90;;;;;;4875779;28;94959;-33
2023/07/27 10:13:13;;;;;;;6.10;5.50;;;16.30;99.90;;;;;;4864300;28;95426;-32
2023/07/27 10:15:43;;;;;;;6.97;6.28;;;16.30;99.90;;;;;;4864133;28;93954;-31
2023/07/27 10:18:12;;;;;;;5.95;5.55;;;16.40;99.90;;;;;;4872287;28;92974;-31
2023/07/27 10:20:38;;;;;;;5.55;5.03;;;16.30;99.90;;;;;;4868591;28;93608;-36
2023/07/27 10:23:18;;;;;;;5.18;4.78;;;16.30;99.90;;;;;;4865656;28;94966;-31
2023/07/27 10:25:53;;;;;;;5.55;5.05;;;16.30;99.90;;;;;;4864050;28;95675;-32
2023/07/27 10:28:43;;;;;;;5.47;5.07;;;16.30;99.90;;;;;;4868014;28;93555;-33
2023/07/27 10:31:24;;;;;;;6.00;5.50;;;16.40;99.90;;;;;;4877661;28;94158;-40
2023/07/27 10:33:55;;;;;;;5.97;5.57;;;16.40;99.90;;;;;;4877390;28;95345;-34
2023/07/27 10:36:23;;;;;;;6.22;5.72;;;16.40;99.90;;;;;;4876352;28;94016;-37
2023/07/27 10:38:53;;;;;;;6.43;5.65;;;16.50;99.90;;;;;;4865768;28;93112;-39
2023/07/27 10:41:21;;;;;;;5.95;5.55;;;16.50;99.90;;;;;;4868401;28;92451;-33
2023/07/27 10:44:08;;;;;;;5.80;5.40;;;16.50;99.90;;;;;;4870660;28;95522;-31
2023/07/27 10:46:44;;;;;;;6.10;5.60;;;16.60;99.90;;;;;;4867654;28;94474;-32
2023/07/27 10:49:11;;;;;;;6.18;5.68;;;16.60;99.90;;;;;;4866126;28;93957;-34
2023/07/27 10:51:38;;;;;;;6.22;5.78;;;16.60;99.90;;;;;;4858670;28;92636;-32
2023/07/27 10:54:04;;;;;;;5.32;4.93;;;16.70;99.90;;;;;;4868140;28;95673;-34
2023/07/27 10:56:34;;;;;;;6.35;5.60;;;16.60;99.90;;;;;;4873982;28;95701;-33
2023/07/27 10:59:01;;;;;;;5.55;5.13;;;16.70;99.90;;;;;;4876843;28;93578;-37
2023/07/27 11:01:30;;;;;;;5.72;5.10;;;16.70;99.90;;;;;;4875043;28;94954;-34
2023/07/27 11:03:57;;;;;;;5.65;4.82;;;16.80;99.90;;;;;;4859823;28;94835;-34
2023/07/27 11:06:29;;;;;;;4.95;4.55;;;16.80;99.90;;;;;;4857457;28;94936;-32
2023/07/27 11:08:56;;;;;;;5.80;5.32;;;16.80;99.90;;;;;;4858276;28;94470;-33
2023/07/27 11:11:24;;;;;;;6.43;5.82;;;16.80;99.90;;;;;;4858211;28;92149;-35
2023/07/27 11:13:50;;;;;;;5.53;5.07;;;16.90;99.90;;;;;;4857853;28;94297;-40
2023/07/27 11:16:17;;;;;;;5.95;5.55;;;16.90;99.90;;;;;;4857608;28;94591;-33
2023/07/27 11:18:43;;;;;;;5.75;5.30;;;16.90;99.90;;;;;;4857497;28;94178;-33
2023/07/27 11:21:10;;;;;;;5.30;4.90;;;17.00;99.90;;;;;;4857626;28;92125;-37
2023/07/27 11:23:48;;;;;;;6.05;5.35;;;17.00;99.90;;;;;;4870059;28;93569;-34
2023/07/27 11:26:14;;;;;;;;;;;17.10;99.90;;;;;;4858721;28;94789;-33
2023/07/27 11:28:40;;;;;;;6.38;5.82;;;17.10;99.90;;;;;;4866379;28;93146;-32
2023/07/27 11:31:07;;;;;;;4.97;4.57;;;17.20;99.90;;;;;;4876709;28;93178;-32
2023/07/27 11:33:35;;;;;;;5.32;4.93;;;17.30;99.90;;;;;;4875911;28;94439;-37
2023/07/27 11:36:01;;;;;;;5.25;4.85;;;17.40;99.90;;;;;;4876391;28;94283;-36
2023/07/27 11:38:30;;;;;;;4.90;4.50;;;17.40;99.90;;;;;;4863787;28;94266;-32
2023/07/27 11:40:57;;;;;;;4.28;3.97;;;17.50;99.90;;;;;;4876273;28;93481;-34
2023/07/27 11:43:26;;;;;;;4.80;4.40;;;17.50;99.90;;;;;;4875221;28;97284;-34
2023/07/27 11:45:56;;;;;;;3.90;3.60;;;17.50;99.90;;;;;;4876071;28;95086;-36
2023/07/27 11:48:33;;;;;;;3.03;2.83;;;17.50;99.90;;;;;;4871918;28;93065;-33
2023/07/27 11:51:00;;;;;;;2.85;2.58;;;17.60;99.90;;;;;;4862403;28;93283;-33
2023/07/27 11:53:28;;;;;;;2.60;2.40;;;17.60;99.90;;;;;;4857645;28;94574;-39
2023/07/27 11:55:54;;;;;;;2.87;2.67;;;17.60;99.90;;;;;;4858795;28;94494;-35
2023/07/27 11:58:24;;;;;;;2.58;2.42;;;17.70;99.90;;;;;;4868632;28;94385;-30
2023/07/27 12:00:50;;;;;;;2.40;2.20;;;17.70;99.90;;;;;;4862894;28;93616;-32
2023/07/27 12:03:18;;;;;;;2.83;2.58;;;17.80;99.90;;;;;;4875513;28;93977;-38
2023/07/27 12:05:44;;;;;;;3.60;3.30;;;17.80;99.90;;;;;;4875834;28;93961;-33
2023/07/27 12:08:10;;;;;;;2.75;2.55;;;17.80;99.90;;;;;;4876244;28;95655;-36
2023/07/27 12:10:35;;;;;;;3.22;2.95;;;17.80;99.90;;;;;;4862206;28;94356;-39
2023/07/27 12:13:07;;;;;;;3.58;3.28;;;17.90;99.90;;;;;;4864873;28;95117;-38
2023/07/27 12:15:34;;;;;;;2.58;2.30;;;17.90;99.90;;;;;;4857615;28;94411;-33
2023/07/27 12:18:05;;;;;;;2.73;2.53;;;17.90;99.90;;;;;;4870088;28;93107;-37
2023/07/27 12:20:33;;;;;;;2.65;2.45;;;17.90;99.90;;;;;;4876049;28;93300;-32
2023/07/27 12:22:59;;;;;;;2.58;2.38;;;17.90;99.90;;;;;;4876083;28;94891;-35
2023/07/27 12:25:26;;;;;;;2.78;2.58;;;18.00;99.90;;;;;;4868272;28;94483;-34
2023/07/27 12:27:52;;;;;;;2.97;2.50;;;18.00;99.90;;;;;;4859170;28;94388;-39
2023/07/27 12:30:19;;;;;;;2.88;2.67;;;17.90;99.90;;;;;;4872239;28;94269;-36
2023/07/27 12:32:45;;;;;;;2.75;2.55;;;17.80;99.90;;;;;;4856751;28;95412;-31
2023/07/27 12:35:11;;;;;;;3.75;3.45;;;17.90;99.90;;;;;;4864017;28;96190;-33
2023/07/27 12:37:36;;;;;;;3.60;3.30;;;17.90;99.90;;;;;;4869851;28;92322;-34
2023/07/27 12:40:03;;;;;;;3.10;2.90;;;18.00;99.90;;;;;;4859760;28;94548;-31